Time;durP1;ratioP1;P1;durP2;ratioP2;P2;SDS_P1;SDS_P2;PMS_P1;PMS_P2;Temp;Humidity;BMP_temperature;BMP_pressure;BME280_temperature;BME280_humidity;BME280_pressure;Samples;Min_cycle;Max_cycle;Signal;HPM_P1;HPM_P2
2023/11/13 00:00:24;;;;;;;1.42;1.33;;;;;;;21.12;27.67;99863.28;4494887;28;20034;-57
2023/11/13 00:02:34;;;;;;;1.90;1.45;;;;;;;21.12;27.30;99848.94;4495401;28;20070;-57
2023/11/13 00:04:45;;;;;;;1.40;1.30;;;;;;;21.12;27.49;99848.94;4495407;28;20038;-57
2023/11/13 00:06:56;;;;;;;2.33;1.60;;;;;;;21.12;27.88;99845.25;4495137;28;20041;-57
2023/11/13 00:09:06;;;;;;;1.50;1.40;;;;;;;21.13;28.19;99856.34;4496026;28;20042;-56
2023/11/13 00:11:17;;;;;;;1.55;1.45;;;;;;;21.11;27.55;99849.31;4494330;28;20456;-57
2023/11/13 00:13:27;;;;;;;2.10;1.60;;;;;;;21.11;27.60;99838.66;4495727;28;20029;-57
2023/11/13 00:15:38;;;;;;;1.90;1.48;;;;;;;21.13;27.88;99841.16;4494333;28;20049;-57
2023/11/13 00:17:48;;;;;;;1.60;1.48;;;;;;;21.12;27.77;99848.94;4495287;28;20042;-57
2023/11/13 00:19:58;;;;;;;1.60;1.50;;;;;;;21.07;27.71;99837.81;4494845;28;20129;-58
2023/11/13 00:22:09;;;;;;;1.80;1.60;;;;;;;21.11;27.62;99841.53;4495588;28;20104;-57
2023/11/13 00:24:19;;;;;;;1.33;1.23;;;;;;;21.11;27.01;99844.41;4495434;28;20042;-57
2023/11/13 00:26:30;;;;;;;1.60;1.50;;;;;;;21.10;26.80;99839.91;4495527;28;20502;-58
2023/11/13 00:28:40;;;;;;;1.95;1.45;;;;;;;21.11;27.01;99843.56;4495193;28;20037;-57
2023/11/13 00:30:51;;;;;;;1.45;1.20;;;;;;;21.11;27.29;99843.56;4495064;28;20042;-57
2023/11/13 00:33:01;;;;;;;1.30;1.20;;;;;;;21.10;27.12;99847.66;4482884;28;20034;-57
2023/11/13 00:35:11;;;;;;;1.58;1.38;;;;;;;21.10;27.40;99842.78;4484804;28;20081;-57
2023/11/13 00:37:22;;;;;;;1.70;1.45;;;;;;;21.09;27.30;99841.09;4496301;28;20038;-57
2023/11/13 00:39:33;;;;;;;1.45;1.30;;;;;;;20.99;27.25;99818.00;4495178;28;20030;-57
2023/11/13 00:41:43;;;;;;;1.52;1.40;;;;;;;21.09;27.59;99829.63;4493677;28;21200;-57
2023/11/13 00:43:54;;;;;;;1.40;1.30;;;;;;;21.08;27.59;99815.66;4459529;28;20644;-57
2023/11/13 00:46:04;;;;;;;1.60;1.48;;;;;;;21.08;27.88;99807.88;4478005;28;20050;-57
2023/11/13 00:48:15;;;;;;;1.40;1.30;;;;;;;21.08;27.61;99810.75;4494549;28;20072;-58
2023/11/13 00:50:25;;;;;;;1.50;1.38;;;;;;;21.08;27.42;99810.75;4476045;28;20130;-55
2023/11/13 00:52:35;;;;;;;1.45;1.25;;;;;;;21.09;27.39;99805.84;4480076;28;20046;-57
2023/11/13 00:54:46;;;;;;;1.40;1.30;;;;;;;21.10;27.51;99804.63;4472111;28;20047;-58
2023/11/13 00:56:56;;;;;;;1.40;1.30;;;;;;;21.09;27.50;99803.78;4497589;28;20077;-57
2023/11/13 00:59:07;;;;;;;1.25;1.15;;;;;;;21.10;28.05;99810.38;4479571;28;20042;-56
2023/11/13 01:01:17;;;;;;;1.25;1.15;;;;;;;21.08;28.00;99805.03;4498367;28;20483;-57
2023/11/13 01:03:28;;;;;;;1.75;1.40;;;;;;;21.08;27.88;99805.03;4488655;28;20038;-57
2023/11/13 01:05:39;;;;;;;1.73;1.30;;;;;;;21.09;27.89;99809.53;4496530;28;20049;-57
2023/11/13 01:07:49;;;;;;;1.85;1.40;;;;;;;21.09;27.55;99811.59;4496826;28;20049;-55
2023/11/13 01:10:00;;;;;;;1.30;1.20;;;;;;;21.08;27.64;99822.25;4497482;28;20030;-57
2023/11/13 01:12:10;;;;;;;1.17;1.08;;;;;;;21.09;27.33;99825.94;4478327;28;20586;-58
2023/11/13 01:14:21;;;;;;;1.30;1.20;;;;;;;21.10;27.35;99825.56;4488623;28;20058;-57
2023/11/13 01:16:31;;;;;;;1.20;1.10;;;;;;;21.09;27.34;99832.50;4497672;28;20365;-57
2023/11/13 01:18:41;;;;;;;1.83;1.10;;;;;;;21.09;27.45;99826.75;4478115;28;20050;-57
2023/11/13 01:20:52;;;;;;;1.58;1.30;;;;;;;21.09;27.20;99835.34;4479012;28;20066;-57
2023/11/13 01:23:02;;;;;;;1.50;0.95;;;;;;;21.09;27.07;99841.09;4483480;28;20855;-58
2023/11/13 01:25:13;;;;;;;1.63;1.10;;;;;;;21.10;26.87;99830.47;4498199;28;20125;-57
2023/11/13 01:27:24;;;;;;;1.33;1.13;;;;;;;21.10;26.83;99828.44;4482837;28;20030;-57
2023/11/13 01:29:34;;;;;;;1.35;1.20;;;;;;;21.10;26.80;99814.06;4478515;28;20026;-58
2023/11/13 01:31:44;;;;;;;1.13;1.02;;;;;;;21.11;27.39;99823.50;4487345;28;20174;-58
2023/11/13 01:33:55;;;;;;;1.80;1.30;;;;;;;21.10;27.57;99814.06;4488194;28;20480;-57
2023/11/13 01:36:05;;;;;;;1.40;1.30;;;;;;;21.10;27.35;99808.34;4497735;28;20468;-57
2023/11/13 01:38:16;;;;;;;1.17;0.98;;;;;;;21.08;27.49;99807.06;4482069;28;20046;-57
2023/11/13 01:40:26;;;;;;;1.35;1.20;;;;;;;21.10;27.32;99814.06;4495815;28;20125;-57
2023/11/13 01:42:37;;;;;;;1.60;1.20;;;;;;;21.09;27.39;99806.66;4497677;28;20046;-57
2023/11/13 01:44:47;;;;;;;1.35;1.20;;;;;;;21.09;27.02;99788.66;4496338;28;20058;-57
2023/11/13 01:46:58;;;;;;;1.55;1.10;;;;;;;21.09;27.26;99783.72;4497021;28;20052;-57
2023/11/13 01:49:09;;;;;;;1.42;1.30;;;;;;;21.09;27.57;99765.69;4497788;28;20034;-57
2023/11/13 01:51:20;;;;;;;1.30;1.15;;;;;;;21.08;27.57;99773.47;4490142;28;20039;-57
2023/11/13 01:53:31;;;;;;;1.88;1.30;;;;;;;21.09;27.11;99766.50;4478117;28;20038;-57
2023/11/13 01:55:42;;;;;;;1.48;1.10;;;;;;;21.10;27.73;99771.03;4495921;28;20105;-58
2023/11/13 01:57:53;;;;;;;1.52;1.02;;;;;;;21.08;27.41;99764.84;4496893;28;20108;-58
2023/11/13 02:00:05;;;;;;;1.17;1.08;;;;;;;21.08;27.59;99753.38;4485087;28;21124;-57
2023/11/13 02:02:24;;;;;;;1.30;1.20;;;;;;;21.08;27.36;99746.81;4479240;28;20047;-57
2023/11/13 02:04:34;;;;;;;1.30;1.20;;;;;;;21.07;27.78;99746.00;4477570;28;20518;-58
2023/11/13 02:06:45;;;;;;;1.10;1.00;;;;;;;21.07;28.10;99737.38;4484903;28;20204;-58
2023/11/13 02:08:57;;;;;;;1.25;1.15;;;;;;;21.06;27.57;99752.94;4477466;28;20023;-58
2023/11/13 02:11:08;;;;;;;1.35;1.10;;;;;;;21.07;27.63;99754.59;4497245;28;20049;-58
2023/11/13 02:13:18;;;;;;;1.35;1.25;;;;;;;21.08;27.53;99753.38;4487532;28;20030;-58
2023/11/13 02:15:29;;;;;;;1.55;1.20;;;;;;;21.08;27.70;99746.81;4496570;28;20468;-58
2023/11/13 02:17:40;;;;;;;1.30;1.10;;;;;;;21.07;27.87;99746.00;4477955;28;20053;-58
2023/11/13 02:19:50;;;;;;;1.45;1.35;;;;;;;21.07;27.67;99751.72;4496130;28;20145;-58
2023/11/13 02:22:01;;;;;;;1.20;1.10;;;;;;;21.06;27.67;99738.59;4479182;28;20037;-58
2023/11/13 02:24:12;;;;;;;1.40;1.10;;;;;;;21.04;28.17;99741.00;4477419;28;20094;-58
2023/11/13 02:26:24;;;;;;;1.20;1.10;;;;;;;21.06;28.03;99741.47;4496656;28;20481;-57
2023/11/13 02:28:34;;;;;;;1.20;1.10;;;;;;;21.06;27.46;99744.31;4496786;28;20085;-58
2023/11/13 02:30:44;;;;;;;1.20;1.10;;;;;;;21.06;27.49;99750.06;4497695;28;20436;-58
2023/11/13 02:32:55;;;;;;;1.42;1.00;;;;;;;21.06;27.66;99750.06;4487015;28;20084;-58
2023/11/13 02:35:06;;;;;;;1.35;1.15;;;;;;;21.06;27.31;99744.31;4496013;28;20074;-58
2023/11/13 02:37:18;;;;;;;1.30;1.10;;;;;;;21.00;27.12;99745.06;4482632;28;20038;-58
2023/11/13 02:39:29;;;;;;;0.93;0.90;;;;;;;21.06;27.12;99755.00;4489229;28;20159;-57
2023/11/13 02:41:39;;;;;;;1.20;1.05;;;;;;;21.05;27.36;99741.84;4496472;28;20120;-58
2023/11/13 02:43:49;;;;;;;1.20;1.10;;;;;;;21.06;27.43;99750.06;4488638;28;20042;-58
2023/11/13 02:46:01;;;;;;;1.23;1.13;;;;;;;21.07;27.28;99748.88;4480818;28;20034;-58
2023/11/13 02:48:11;;;;;;;1.35;1.25;;;;;;;21.05;27.81;99736.94;4495446;28;21504;-58
2023/11/13 02:50:24;;;;;;;1.08;1.00;;;;;;;21.07;27.54;99740.25;4496894;28;20770;-58
2023/11/13 02:52:34;;;;;;;1.30;1.05;;;;;;;21.08;27.40;99741.06;4495445;28;20065;-56
2023/11/13 02:54:45;;;;;;;1.30;1.05;;;;;;;21.08;27.12;99744.78;4482265;28;20420;-58
2023/11/13 02:56:55;;;;;;;1.27;1.10;;;;;;;21.07;27.24;99751.72;4479048;28;20030;-57
2023/11/13 02:59:06;;;;;;;1.10;1.00;;;;;;;21.08;27.50;99752.53;4495499;28;20551;-58
2023/11/13 03:01:17;;;;;;;1.20;1.10;;;;;;;21.07;27.43;99751.72;4488992;28;20065;-57
2023/11/13 03:03:28;;;;;;;1.55;1.10;;;;;;;21.08;27.49;99764.84;4495956;28;20081;-57
2023/11/13 03:05:39;;;;;;;1.40;1.00;;;;;;;21.08;27.12;99761.97;4478864;28;20883;-58
2023/11/13 03:07:50;;;;;;;1.63;1.05;;;;;;;21.06;27.29;99769.34;4496385;28;20022;-57
2023/11/13 03:10:01;;;;;;;1.17;1.00;;;;;;;21.06;27.52;99755.81;4478651;28;20902;-57
2023/11/13 03:12:11;;;;;;;1.30;1.10;;;;;;;21.07;27.25;99748.88;4478592;28;20038;-58
2023/11/13 03:14:21;;;;;;;1.30;1.00;;;;;;;21.08;27.90;99756.25;4494443;28;20105;-58
2023/11/13 03:16:32;;;;;;;1.10;1.00;;;;;;;21.10;27.87;99747.25;4477612;28;20665;-57
2023/11/13 03:18:42;;;;;;;1.20;0.93;;;;;;;21.09;27.69;99743.53;4496914;28;20122;-58
2023/11/13 03:20:53;;;;;;;1.27;0.90;;;;;;;20.99;28.14;99735.66;4477368;28;20062;-58
2023/11/13 03:23:03;;;;;;;0.90;0.90;;;;;;;21.06;28.17;99750.06;4487162;28;20073;-57
2023/11/13 03:25:14;;;;;;;1.35;1.00;;;;;;;21.04;28.35;99745.94;4495611;28;20038;-58
2023/11/13 03:27:25;;;;;;;0.85;0.82;;;;;;;21.09;28.41;99746.41;4494856;28;20648;-56
2023/11/13 03:29:35;;;;;;;0.98;0.85;;;;;;;21.08;28.25;99733.28;4480303;28;20035;-57
2023/11/13 03:31:46;;;;;;;0.90;0.90;;;;;;;21.03;28.18;99719.28;4495120;28;20831;-58
2023/11/13 03:33:56;;;;;;;0.80;0.80;;;;;;;21.08;28.22;99720.97;4479822;28;20030;-58
2023/11/13 03:36:07;;;;;;;1.00;0.90;;;;;;;21.08;27.85;99713.22;4477226;28;20984;-57
2023/11/13 03:38:18;;;;;;;1.38;0.80;;;;;;;21.05;28.07;99702.50;4496589;28;20034;-57
2023/11/13 03:40:28;;;;;;;1.25;1.00;;;;;;;21.08;27.66;99707.47;4478045;28;20130;-58
2023/11/13 03:42:40;;;;;;;0.98;0.82;;;;;;;21.08;28.28;99713.22;4495454;28;20670;-58
2023/11/13 03:44:50;;;;;;;1.05;0.80;;;;;;;21.07;27.80;99702.97;4496482;28;20162;-58
2023/11/13 03:47:02;;;;;;;1.13;0.80;;;;;;;21.03;28.31;99693.47;4483154;28;20393;-58
2023/11/13 03:49:12;;;;;;;1.13;0.90;;;;;;;21.07;27.95;99708.69;4495453;28;20029;-57
2023/11/13 03:51:23;;;;;;;1.13;0.80;;;;;;;21.07;28.18;99708.69;4480133;28;20038;-57
2023/11/13 03:53:34;;;;;;;0.70;0.70;;;;;;;21.07;27.62;99713.59;4495024;28;20145;-58
2023/11/13 03:55:45;;;;;;;1.05;1.00;;;;;;;21.08;28.09;99709.50;4496192;28;20073;-57
2023/11/13 03:57:55;;;;;;;1.00;0.73;;;;;;;21.07;27.81;99700.09;4477753;28;20045;-58
2023/11/13 04:00:07;;;;;;;0.75;0.75;;;;;;;21.08;27.98;99709.50;4475950;28;20039;-58
2023/11/13 04:02:22;;;;;;;0.80;0.80;;;;;;;21.08;27.94;99706.63;4492813;28;20050;-58
2023/11/13 04:04:33;;;;;;;1.15;0.70;;;;;;;21.07;28.06;99708.69;4486602;28;20395;-57
2023/11/13 04:06:43;;;;;;;0.80;0.70;;;;;;;21.07;27.98;99707.84;4481471;28;20046;-55
2023/11/13 04:08:54;;;;;;;1.02;0.80;;;;;;;21.07;27.91;99707.84;4495766;28;20035;-58
2023/11/13 04:11:05;;;;;;;1.05;0.80;;;;;;;21.02;27.98;99709.03;4496526;28;20033;-57
2023/11/13 04:13:16;;;;;;;0.80;0.80;;;;;;;21.05;27.98;99722.59;4495244;28;20491;-58
2023/11/13 04:15:27;;;;;;;0.98;0.90;;;;;;;21.06;27.95;99732.84;4495071;28;20046;-58
2023/11/13 04:17:37;;;;;;;0.80;0.70;;;;;;;21.07;28.11;99739.41;4495516;28;20034;-58
2023/11/13 04:19:48;;;;;;;1.02;0.90;;;;;;;21.07;27.86;99734.53;4477887;28;20039;-57
2023/11/13 04:21:59;;;;;;;0.75;0.70;;;;;;;21.02;28.13;99720.50;4487212;28;20365;-58
2023/11/13 04:24:09;;;;;;;0.70;0.70;;;;;;;21.07;27.83;99725.91;4494843;28;20044;-57
2023/11/13 04:26:20;;;;;;;1.08;0.90;;;;;;;21.07;28.00;99723.03;4494102;28;20041;-58
2023/11/13 04:28:32;;;;;;;0.77;0.77;;;;;;;21.06;27.85;99715.63;4497856;28;20491;-58
2023/11/13 04:30:43;;;;;;;0.70;0.60;;;;;;;21.02;27.90;99706.16;4498057;28;20092;-58
2023/11/13 04:32:54;;;;;;;0.75;0.75;;;;;;;21.05;28.32;99719.72;4473330;28;20054;-58
2023/11/13 04:35:04;;;;;;;0.82;0.70;;;;;;;21.06;27.81;99709.91;4498329;28;20050;-57
2023/11/13 04:37:15;;;;;;;0.75;0.70;;;;;;;21.05;28.35;99708.25;4498058;28;20491;-58
2023/11/13 04:39:25;;;;;;;1.00;0.90;;;;;;;21.08;28.26;99718.09;4497985;28;20027;-58
2023/11/13 04:41:37;;;;;;;1.13;1.02;;;;;;;21.07;28.19;99717.31;4497872;28;20077;-58
2023/11/13 04:43:47;;;;;;;1.05;0.95;;;;;;;21.02;28.28;99713.94;4497624;28;20023;-58
2023/11/13 04:45:58;;;;;;;0.98;0.88;;;;;;;21.08;28.06;99713.22;4497839;28;20042;-58
2023/11/13 04:48:09;;;;;;;1.00;0.90;;;;;;;21.08;28.31;99710.34;4498196;28;20033;-58
2023/11/13 04:50:19;;;;;;;1.05;0.95;;;;;;;21.09;28.28;99708.31;4482036;28;23203;-58
2023/11/13 04:52:31;;;;;;;1.20;1.10;;;;;;;21.07;28.67;99707.84;4495910;28;20491;-58
2023/11/13 04:54:41;;;;;;;1.20;1.10;;;;;;;21.08;28.57;99713.22;4497020;28;20054;-58
2023/11/13 04:56:52;;;;;;;1.48;1.17;;;;;;;21.08;28.41;99704.59;4497186;28;25262;-56
2023/11/13 04:59:02;;;;;;;1.88;1.30;;;;;;;21.08;28.84;99704.59;4496811;28;20082;-58
2023/11/13 05:01:12;;;;;;;1.30;1.20;;;;;;;21.08;28.79;99707.47;4498121;28;20034;-56
2023/11/13 05:03:23;;;;;;;1.20;1.10;;;;;;;21.09;29.19;99700.50;4497181;28;20491;-58
2023/11/13 05:05:36;;;;;;;1.20;1.10;;;;;;;21.07;28.71;99700.09;4480674;28;20031;-57
2023/11/13 05:07:47;;;;;;;1.35;1.25;;;;;;;21.08;28.75;99690.25;4498321;28;20042;-58
2023/11/13 05:09:57;;;;;;;1.10;1.00;;;;;;;21.07;29.10;99688.63;4497391;28;20070;-58
2023/11/13 05:12:08;;;;;;;1.50;1.40;;;;;;;21.07;29.10;99682.03;4497593;28;20045;-58
2023/11/13 05:14:18;;;;;;;1.67;1.27;;;;;;;21.07;28.71;99685.75;4498254;28;22138;-58
2023/11/13 05:16:29;;;;;;;1.42;1.30;;;;;;;21.08;28.49;99686.53;4480242;28;20046;-58
2023/11/13 05:18:39;;;;;;;1.30;1.20;;;;;;;21.06;28.80;99669.72;4497326;28;20480;-58
2023/11/13 05:20:50;;;;;;;1.60;1.50;;;;;;;21.06;28.76;99661.13;4496924;28;20042;-58
2023/11/13 05:23:00;;;;;;;3.28;1.90;;;;;;;21.08;28.91;99655.00;4497334;28;20399;-57
2023/11/13 05:25:11;;;;;;;1.95;1.70;;;;;;;21.03;29.23;99653.31;4498052;28;20044;-58
2023/11/13 05:27:21;;;;;;;1.95;1.50;;;;;;;21.08;29.33;99661.56;4498311;28;20084;-58
2023/11/13 05:29:32;;;;;;;1.67;1.40;;;;;;;21.08;29.16;99658.69;4496965;28;20054;-58
2023/11/13 05:31:42;;;;;;;1.30;1.20;;;;;;;21.08;29.35;99655.81;4489451;28;20037;-58
2023/11/13 05:33:52;;;;;;;1.45;1.30;;;;;;;21.08;29.04;99638.59;4498256;28;20134;-58
2023/11/13 05:36:03;;;;;;;1.35;1.10;;;;;;;21.08;29.41;99632.03;4496734;28;32082;-58
2023/11/13 05:38:14;;;;;;;1.40;1.30;;;;;;;21.03;29.30;99618.88;4496762;28;20042;-58
2023/11/13 05:40:25;;;;;;;1.23;0.95;;;;;;;21.08;29.64;99615.66;4487114;28;20035;-58
2023/11/13 05:42:36;;;;;;;1.45;1.23;;;;;;;21.05;29.35;99609.88;4497709;28;20834;-58
2023/11/13 05:44:46;;;;;;;1.60;1.50;;;;;;;21.08;29.68;99614.81;4496793;28;20034;-57
2023/11/13 05:46:56;;;;;;;1.50;1.30;;;;;;;21.09;29.63;99610.75;4496807;28;20030;-58
2023/11/13 05:49:07;;;;;;;1.50;1.40;;;;;;;21.06;29.97;99603.75;4496761;28;20037;-57
2023/11/13 05:51:18;;;;;;;1.73;1.42;;;;;;;20.92;29.73;99577.75;4497912;28;20403;-57
2023/11/13 05:53:29;;;;;;;1.52;1.42;;;;;;;20.99;29.97;99585.63;4496896;28;20117;-57
2023/11/13 05:55:39;;;;;;;1.70;1.50;;;;;;;21.08;29.88;99597.59;4497195;28;20122;-57
2023/11/13 05:57:53;;;;;;;1.90;1.58;;;;;;;21.07;29.80;99602.53;4496925;28;20038;-58
2023/11/13 06:00:04;;;;;;;2.05;1.67;;;;;;;21.08;30.01;99597.59;4496277;28;20082;-58
2023/11/13 06:02:23;;;;;;;1.67;1.55;;;;;;;21.03;30.10;99578.72;4493193;28;20030;-57
2023/11/13 06:04:35;;;;;;;1.50;1.40;;;;;;;21.07;30.26;99585.31;4496750;28;20052;-58
2023/11/13 06:06:46;;;;;;;1.70;1.60;;;;;;;21.07;30.34;99578.75;4480360;28;20042;-58
2023/11/13 06:08:56;;;;;;;1.83;1.40;;;;;;;21.08;30.51;99586.13;4496643;28;20455;-58
2023/11/13 06:11:07;;;;;;;2.05;1.80;;;;;;;21.02;30.20;99577.06;4498009;28;20023;-58
2023/11/13 06:13:18;;;;;;;1.75;1.60;;;;;;;21.04;30.79;99591.81;4497409;28;20137;-58
2023/11/13 06:15:28;;;;;;;1.92;1.70;;;;;;;21.04;30.74;99588.94;4497944;28;20046;-56
2023/11/13 06:17:40;;;;;;;2.05;1.80;;;;;;;21.08;30.45;99598.44;4497172;28;20198;-58
2023/11/13 06:19:53;;;;;;;1.80;1.60;;;;;;;21.03;30.56;99595.91;4496792;28;20022;-58
2023/11/13 06:22:03;;;;;;;1.75;1.60;;;;;;;21.04;30.31;99593.88;4495435;28;20133;-58
2023/11/13 06:24:14;;;;;;;2.20;1.67;;;;;;;21.07;30.37;99591.06;4478544;28;20046;-58
2023/11/13 06:26:24;;;;;;;1.90;1.70;;;;;;;21.08;30.44;99592.69;4496557;28;20041;-58
2023/11/13 06:28:35;;;;;;;2.10;1.70;;;;;;;21.09;30.88;99588.59;4497652;28;20053;-58
2023/11/13 06:30:45;;;;;;;1.88;1.63;;;;;;;21.08;30.90;99589.81;4496796;28;20042;-58
2023/11/13 06:32:56;;;;;;;2.08;1.88;;;;;;;21.08;31.09;99581.22;4496178;28;20062;-57
2023/11/13 06:35:07;;;;;;;2.08;1.88;;;;;;;21.08;30.70;99581.22;4497710;28;20042;-57
2023/11/13 06:37:17;;;;;;;2.00;1.70;;;;;;;21.08;30.62;99580.38;4481172;28;20931;-58
2023/11/13 06:39:27;;;;;;;2.70;2.28;;;;;;;21.06;30.97;99575.03;4496724;28;20486;-58
2023/11/13 06:41:38;;;;;;;0.60;0.60;;;;;;;21.30;44.53;99580.19;4496553;28;20049;-58
2023/11/13 06:43:50;;;;;;;3.08;2.75;;;;;;;21.24;31.62;99573.19;4495556;28;20022;-58
2023/11/13 06:46:01;;;;;;;2.60;2.28;;;;;;;21.16;31.73;99574.34;4497444;28;20058;-58
2023/11/13 06:48:12;;;;;;;2.20;1.90;;;;;;;21.15;31.27;99569.00;4496163;28;20050;-58
2023/11/13 06:50:23;;;;;;;2.13;1.80;;;;;;;21.09;31.12;99562.78;4495617;28;20037;-57
2023/11/13 06:52:33;;;;;;;2.60;2.05;;;;;;;21.13;31.25;99565.69;4496617;28;20061;-58
2023/11/13 06:54:44;;;;;;;2.20;1.83;;;;;;;21.13;31.13;99559.94;4481328;28;20046;-58
2023/11/13 06:56:54;;;;;;;1.65;1.55;;;;;;;21.12;31.25;99570.59;4495351;28;20644;-58
2023/11/13 06:59:06;;;;;;;2.13;1.77;;;;;;;21.12;31.80;99564.84;4496520;28;20019;-58
2023/11/13 07:01:18;;;;;;;2.28;2.00;;;;;;;21.11;31.37;99563.22;4496294;28;20039;-57
2023/11/13 07:03:29;;;;;;;2.10;1.77;;;;;;;21.13;31.81;99566.53;4496713;28;20926;-58
2023/11/13 07:05:41;;;;;;;2.13;1.80;;;;;;;21.13;31.80;99559.94;4495550;28;20026;-58
2023/11/13 07:07:51;;;;;;;2.20;2.00;;;;;;;21.11;31.68;99559.50;4494691;28;20061;-58
2023/11/13 07:10:04;;;;;;;2.25;2.00;;;;;;;21.12;31.80;99569.78;4495825;28;20038;-57
2023/11/13 07:12:14;;;;;;;2.42;2.22;;;;;;;21.11;32.08;99576.72;4495547;28;20034;-58
2023/11/13 07:14:25;;;;;;;2.90;2.60;;;;;;;21.10;31.89;99567.31;4484168;28;20460;-59
2023/11/13 07:16:36;;;;;;;3.20;2.90;;;;;;;21.10;32.30;99567.31;4495030;28;20049;-58
2023/11/13 07:18:46;;;;;;;3.40;3.10;;;;;;;21.11;32.22;99571.81;4495753;28;20137;-57
2023/11/13 07:20:57;;;;;;;3.78;3.47;;;;;;;21.10;31.84;99572.22;4495651;28;20034;-58
2023/11/13 07:23:09;;;;;;;3.35;3.03;;;;;;;21.10;31.94;99570.19;4493940;28;20030;-58
2023/11/13 07:25:20;;;;;;;3.45;2.90;;;;;;;21.08;32.48;99557.44;4496151;28;20038;-58
2023/11/13 07:27:30;;;;;;;2.40;2.20;;;;;;;21.07;32.09;99550.88;4471654;28;20035;-58
2023/11/13 07:29:44;;;;;;;2.20;1.98;;;;;;;20.94;32.59;99526.56;4496452;28;20039;-58
2023/11/13 07:31:54;;;;;;;2.15;1.95;;;;;;;21.12;32.39;99555.44;4496301;28;20081;-57
2023/11/13 07:34:04;;;;;;;2.55;2.00;;;;;;;21.11;32.71;99556.63;4495046;28;20058;-58
2023/11/13 07:36:15;;;;;;;2.20;1.70;;;;;;;21.08;32.87;99552.53;4495895;28;20858;-58
2023/11/13 07:38:25;;;;;;;2.00;1.65;;;;;;;21.13;33.26;99560.78;4495338;28;20030;-56
2023/11/13 07:40:36;;;;;;;1.92;1.70;;;;;;;21.11;33.10;99546.00;4477967;28;20840;-58
2023/11/13 07:42:48;;;;;;;2.70;2.00;;;;;;;21.11;33.00;99551.72;4496023;28;20058;-57
2023/11/13 07:44:59;;;;;;;2.00;1.80;;;;;;;21.10;33.49;99541.50;4494939;28;20906;-57
2023/11/13 07:47:09;;;;;;;1.88;1.67;;;;;;;21.12;33.48;99541.09;4495234;28;20056;-57
2023/11/13 07:49:20;;;;;;;2.33;1.70;;;;;;;21.12;33.46;99527.56;4481128;28;20062;-57
2023/11/13 07:51:32;;;;;;;2.38;1.80;;;;;;;21.12;33.61;99530.41;4488912;28;20034;-57
2023/11/13 07:53:43;;;;;;;1.63;1.52;;;;;;;21.13;33.79;99526.34;4496292;28;20906;-57
2023/11/13 07:55:54;;;;;;;1.55;1.45;;;;;;;21.14;33.68;99522.25;4494769;28;20509;-58
2023/11/13 07:58:04;;;;;;;1.65;1.45;;;;;;;21.11;34.13;99528.78;4483869;28;20050;-58
2023/11/13 08:00:16;;;;;;;1.33;1.23;;;;;;;21.12;34.12;99536.16;4494950;28;20023;-58
2023/11/13 08:02:26;;;;;;;1.48;1.38;;;;;;;21.12;34.51;99527.56;4475374;28;20597;-58
2023/11/13 08:04:37;;;;;;;1.13;1.02;;;;;;;21.05;34.66;99515.19;4477923;28;20043;-58
2023/11/13 08:06:48;;;;;;;0.98;0.90;;;;;;;21.14;34.51;99522.25;4478151;28;20130;-58
2023/11/13 08:08:58;;;;;;;1.10;1.00;;;;;;;21.12;34.78;99518.13;4497181;28;20023;-58
2023/11/13 08:11:09;;;;;;;1.23;0.98;;;;;;;21.09;34.92;99522.59;4495412;28;20042;-57
2023/11/13 08:13:21;;;;;;;1.10;1.00;;;;;;;21.09;34.99;99513.19;4496054;28;20030;-56
2023/11/13 08:15:31;;;;;;;1.10;1.00;;;;;;;21.06;35.25;99509.06;4496139;28;20050;-57
2023/11/13 08:17:43;;;;;;;0.95;0.93;;;;;;;21.13;35.38;99512.00;4494481;28;20468;-57
2023/11/13 08:19:53;;;;;;;1.55;1.10;;;;;;;21.13;35.34;99514.88;4494748;28;20038;-58
2023/11/13 08:22:04;;;;;;;1.13;1.02;;;;;;;21.10;35.14;99492.72;4493891;28;20033;-58
2023/11/13 08:24:19;;;;;;;0.90;0.90;;;;;;;21.09;35.36;99491.03;4493905;28;21416;-57
2023/11/13 08:26:32;;;;;;;1.30;1.13;;;;;;;21.13;35.14;99483.31;4494710;28;20890;-58
2023/11/13 08:28:44;;;;;;;1.35;1.08;;;;;;;21.13;35.34;99476.72;4494355;28;20874;-57
2023/11/13 08:30:57;;;;;;;1.10;1.00;;;;;;;21.13;35.88;99479.59;4494384;28;20125;-57
2023/11/13 08:33:08;;;;;;;0.88;0.88;;;;;;;21.12;35.77;99466.50;4494691;28;20073;-58
2023/11/13 08:35:19;;;;;;;0.75;0.75;;;;;;;21.13;35.85;99463.22;4495881;28;20125;-58
2023/11/13 08:37:30;;;;;;;0.60;0.60;;;;;;;21.11;35.88;99459.91;4496003;28;20042;-57
2023/11/13 08:39:41;;;;;;;0.70;0.70;;;;;;;21.12;36.09;99466.50;4494876;28;20047;-58
2023/11/13 08:41:55;;;;;;;0.63;0.63;;;;;;;21.00;36.03;99430.31;4495822;28;20045;-58
2023/11/13 08:44:07;;;;;;;0.80;0.80;;;;;;;21.10;36.08;99452.53;4493323;28;20035;-58
2023/11/13 08:46:17;;;;;;;0.80;0.70;;;;;;;21.09;35.98;99447.22;4494680;28;20026;-58
2023/11/13 08:48:28;;;;;;;0.60;0.60;;;;;;;21.16;35.96;99456.69;4486080;28;20034;-58
2023/11/13 08:50:38;;;;;;;0.70;0.70;;;;;;;21.15;36.13;99449.31;4494690;28;20034;-57
2023/11/13 08:52:50;;;;;;;0.90;0.77;;;;;;;21.14;36.38;99453.38;4485842;28;21113;-57
2023/11/13 08:55:00;;;;;;;1.73;0.70;;;;;;;21.15;36.15;99446.44;4494467;28;20046;-58
2023/11/13 08:57:13;;;;;;;0.98;0.80;;;;;;;21.11;36.76;99436.97;4494710;28;20037;-60
2023/11/13 08:59:24;;;;;;;1.05;0.70;;;;;;;21.19;36.51;99444.41;4494026;28;20042;-58
2023/11/13 09:01:36;;;;;;;1.02;0.80;;;;;;;21.20;36.50;99445.25;4493825;28;20038;-59
2023/11/13 09:03:47;;;;;;;0.75;0.60;;;;;;;21.21;36.51;99450.56;4485317;28;20129;-60
2023/11/13 09:05:58;;;;;;;1.15;0.80;;;;;;;21.23;36.33;99444.44;4494855;28;21463;-59
2023/11/13 09:08:09;;;;;;;0.70;0.70;;;;;;;21.24;36.76;99446.91;4475719;28;20035;-58
2023/11/13 09:10:21;;;;;;;1.10;0.70;;;;;;;21.26;36.65;99443.63;4485993;28;20399;-59
2023/11/13 09:12:31;;;;;;;1.38;0.77;;;;;;;21.27;36.79;99442.41;4494530;28;20034;-59
2023/11/13 09:14:42;;;;;;;0.82;0.80;;;;;;;21.24;36.70;99428.84;4478751;28;20411;-59
2023/11/13 09:16:53;;;;;;;0.80;0.70;;;;;;;21.30;36.75;99430.94;4495082;28;20042;-60
2023/11/13 09:19:04;;;;;;;0.60;0.60;;;;;;;21.31;36.91;99432.59;4496955;28;20030;-60
2023/11/13 09:21:17;;;;;;;0.80;0.75;;;;;;;21.32;36.61;99422.78;4496159;28;20050;-59
2023/11/13 09:23:28;;;;;;;0.90;0.75;;;;;;;21.34;36.56;99423.19;4497272;28;20150;-60
2023/11/13 09:25:39;;;;;;;2.63;2.30;;;;;;;21.36;36.69;99429.34;4480385;28;20591;-58
2023/11/13 09:27:51;;;;;;;21.30;9.98;;;;;;;21.89;45.75;99433.38;4498042;28;20034;-59
2023/11/13 09:30:04;;;;;;;2.88;2.20;;;;;;;21.62;37.69;99429.09;4497161;28;20045;-58
2023/11/13 09:32:14;;;;;;;1.20;1.10;;;;;;;21.51;37.43;99428.22;4496685;28;20038;-58
2023/11/13 09:34:25;;;;;;;1.40;1.00;;;;;;;21.46;37.08;99424.88;4496333;28;20372;-58
2023/11/13 09:36:35;;;;;;;1.58;0.70;;;;;;;21.42;37.13;99429.81;4496872;28;20074;-58
2023/11/13 09:38:47;;;;;;;1.08;0.60;;;;;;;21.41;37.34;99431.00;4497219;28;20047;-58
2023/11/13 09:41:03;;;;;;;1.10;0.90;;;;;;;21.40;37.23;99426.50;4498280;28;20631;-59
2023/11/13 09:43:18;;;;;;;1.02;0.77;;;;;;;21.41;37.82;99423.22;4497183;28;20670;-58
2023/11/13 09:45:30;;;;;;;0.60;0.50;;;;;;;21.36;37.91;99414.19;4496217;28;20042;-59
2023/11/13 09:47:44;;;;;;;0.82;0.50;;;;;;;21.41;37.68;99428.13;4478984;28;20110;-59
2023/11/13 09:50:12;;;;;;;0.57;0.47;;;;;;;21.43;37.89;99420.78;4496043;28;20026;-59
2023/11/13 09:52:26;;;;;;;0.52;0.50;;;;;;;21.44;37.75;99424.47;4497028;28;20105;-60
2023/11/13 09:54:40;;;;;;;0.88;0.47;;;;;;;21.44;37.85;99413.81;4496242;28;20050;-59
2023/11/13 09:56:56;;;;;;;1.00;0.60;;;;;;;21.45;38.08;99406.88;4481674;28;21559;-59
2023/11/13 09:59:08;;;;;;;0.88;0.82;;;;;;;21.42;38.29;99401.91;4497299;28;20045;-60
2023/11/13 10:01:20;;;;;;;0.65;0.60;;;;;;;21.46;38.10;99408.50;4496614;28;20632;-60
2023/11/13 10:03:31;;;;;;;1.80;0.60;;;;;;;21.43;38.25;99394.94;4496627;28;20042;-61
2023/11/13 10:05:42;;;;;;;0.88;0.70;;;;;;;21.48;38.16;99400.31;4496423;28;20042;-60
2023/11/13 10:07:53;;;;;;;0.60;0.50;;;;;;;21.43;38.07;99400.69;4496368;28;20068;-59
2023/11/13 10:10:05;;;;;;;0.57;0.43;;;;;;;21.47;38.31;99392.09;4498228;28;20709;-59
2023/11/13 10:12:16;;;;;;;0.73;0.50;;;;;;;21.48;37.99;99397.44;4496341;28;20041;-60
2023/11/13 10:14:26;;;;;;;0.45;0.40;;;;;;;21.44;38.47;99381.41;4477951;28;20058;-59
2023/11/13 10:16:37;;;;;;;0.77;0.50;;;;;;;21.49;38.37;99384.72;4471615;28;20121;-60